Terminal Aerodrome Forecast
Issued by NWS Twin Cities, MN

Home | Current Version | Previous Version | Graphics & Text | Print | Product List | Glossary On
Versions: 1 2 3 4 5 6 7 8 9 10 11 12 13 14 15 16
763
FTUS43 KMPX 240520
TAFEAU
TAF
KEAU 240520Z 2406/2506 30008KT P6SM BKN100
     FM241600 29013G19KT P6SM VCSH SCT025 BKN050 PROB30 2420/2424
      5SM -TSRA BKN040CB
     FM250000 29008KT P6SM BKN050 BKN100=

USA.gov is the U.S. government's official web portal to all federal, state and local government web resources and services.